CDT,Max TemperatureF,Mean TemperatureF,Min TemperatureF,Max Dew PointF,MeanDew PointF,Min DewpointF,Max Humidity, Mean Humidity, Min Humidity, Max Sea Level PressureIn, Mean Sea Level PressureIn, Min Sea Level PressureIn, Max VisibilityMiles, Mean VisibilityMiles, Min VisibilityMiles, Max Wind SpeedMPH, Mean Wind SpeedMPH, Max Gust SpeedMPH,PrecipitationIn, CloudCover, Events, WindDirDegrees
2013-4-1,24,14,3,14,7,0,92,73,54,30.29,30.24,30.17,10,10,10,14,8,,0.00,0,,283
2013-4-2,26,17,8,14,10,3,92,72,51,30.35,30.31,30.23,10,10,10,8,4,,0.00,0,,281
2013-4-3,37,24,10,30,18,3,87,72,62,30.31,30.09,29.90,10,10,9,26,11,36,0.00,1,,174
2013-4-4,33,25,17,27,19,10,86,73,51,30.25,30.15,29.97,10,10,10,20,12,22,0.00,0,,316
2013-4-5,33,20,8,27,16,5,92,72,52,30.26,30.10,29.85,10,9,2,17,7,18,0.00,3,,100
2013-4-6,35,32,30,28,28,25,87,81,75,29.85,29.79,29.72,10,10,10,15,12,,0.00,8,,347
2013-4-7,33,32,30,30,27,25,93,85,70,29.88,29.84,29.81,10,8,1,9,5,,0.09,8,,314
2013-4-8,32,24,15,28,20,7,93,76,59,30.25,29.99,29.82,10,10,5,21,10,24,0.04,6,,348
2013-4-9,28,18,8,16,8,1,79,66,47,30.37,30.31,30.25,10,10,10,20,13,23,0.00,0,,341
2013-4-10,37,28,19,19,14,10,80,64,45,30.36,30.26,30.15,10,10,10,16,9,,0.00,0,,17
2013-4-11,,,,,,,,,,,,,,,,,,,,,,
2013-4-12,32,30,28,27,24,21,86,78,64,29.90,29.87,29.86,10,7,1,15,10,17,0.00,7,,6
2013-4-13,33,27,21,25,19,16,93,72,55,29.95,29.90,29.88,10,9,4,9,5,,0.00,2,,58
2013-4-14,39,31,23,30,21,16,93,69,45,29.95,29.78,29.58,10,8,1,24,11,33,0.03,3,,69
2013-4-15,35,32,30,30,28,27,93,86,75,29.92,29.62,29.46,10,7,1,23,16,30,0.02,8,,10
2013-4-16,35,32,28,28,25,21,93,76,56,30.36,30.17,29.93,10,10,5,12,8,,0.00,8,,333
2013-4-17,37,34,30,30,28,27,100,81,65,30.36,30.26,30.12,10,8,2,12,3,,0.01,8,,355
2013-4-18,39,34,30,28,25,19,93,72,49,30.12,29.94,29.83,10,8,2,22,12,24,0.00,5,,350
2013-4-19,35,29,23,19,16,12,74,59,38,30.04,29.89,29.79,10,10,10,25,15,31,0.00,0,,341
2013-4-20,33,24,15,19,15,10,86,65,41,30.21,30.16,30.04,10,10,10,10,6,,0.00,0,,203
2013-4-21,37,32,26,32,26,18,93,77,64,30.17,30.03,29.95,10,9,1,21,12,26,0.04,6,,193
2013-4-22,33,28,24,25,21,18,86,72,56,30.32,30.27,30.12,10,10,10,18,11,20,0.00,0,,313
2013-4-23,35,27,19,25,21,16,93,75,52,30.30,30.15,29.99,10,10,4,13,5,,0.00,1,,246
2013-4-24,37,30,23,32,26,21,93,84,70,29.99,29.91,29.85,10,8,0,15,7,21,0.00,2,,230
2013-4-25,39,32,26,28,26,23,93,77,56,30.09,30.02,29.93,10,10,10,17,9,21,0.00,1,,200
2013-4-26,60,46,33,46,37,27,87,71,55,30.05,29.98,29.87,10,10,10,13,8,,0.00,0,,199
2013-4-27,66,52,39,54,43,34,81,65,48,30.04,29.86,29.70,10,10,10,24,13,31,0.00,2,,187
2013-4-28,60,50,39,46,40,30,76,62,44,29.84,29.69,29.60,10,10,10,20,12,24,0.00,1,,247
2013-4-29,62,46,30,41,33,27,93,61,31,29.87,29.71,29.50,10,10,10,17,6,22,0.00,2,,159
2013-4-30,53,47,41,46,39,34,93,74,54,29.82,29.50,29.34,10,10,5,28,15,38,0.26,7,Thunderstorm,293